createdAt,value
2019-02-21T00:01:44.372Z,70.01
2019-02-21T00:04:14.913Z,69.90
2019-02-21T00:06:49.856Z,71.47
2019-02-21T00:09:19.012Z,70.92
2019-02-21T00:11:51.357Z,70.77
2019-02-21T00:14:20.493Z,70.18
2019-02-21T00:16:51.313Z,70.15
2019-02-21T00:19:20.520Z,70.48
2019-02-21T00:21:49.656Z,69.51
2019-02-21T00:24:20.227Z,70.37
2019-02-21T00:26:56.426Z,70.54
2019-02-21T00:29:29.416Z,70.83
2019-02-21T00:32:01.915Z,68.51
2019-02-21T00:34:31.107Z,69.80
2019-02-21T00:37:00.639Z,69.08
2019-02-21T00:39:32.998Z,70.11
2019-02-21T00:42:02.107Z,68.74
2019-02-21T00:44:32.528Z,69.25
2019-02-21T00:47:03.473Z,67.36
2019-02-21T00:49:34.544Z,68.84
2019-02-21T00:52:03.671Z,68.64
2019-02-21T00:54:32.828Z,68.18
2019-02-21T00:57:03.848Z,70.70
2019-02-21T00:59:32.961Z,70.91
2019-02-21T01:02:05.615Z,70.77
2019-02-21T01:04:36.049Z,71.56
2019-02-21T01:07:05.178Z,71.83
2019-02-21T01:09:36.100Z,72.54
2019-02-21T01:12:08.571Z,72.51
2019-02-21T01:14:42.645Z,71.80
2019-02-21T01:17:14.832Z,72.65
2019-02-21T01:19:44.033Z,72.79
2019-02-21T01:22:13.214Z,72.80
2019-02-21T01:24:43.104Z,70.54
2019-02-21T01:27:12.246Z,71.21
2019-02-21T01:29:41.332Z,72.64
2019-02-21T01:32:11.680Z,72.64
2019-02-21T01:34:42.082Z,73.15
2019-02-21T01:37:19.398Z,72.97
2019-02-21T01:39:48.532Z,72.25
2019-02-21T01:42:17.750Z,71.29
2019-02-21T01:44:47.975Z,71.64
2019-02-21T01:47:18.670Z,71.87
2019-02-21T01:49:47.785Z,71.60
2019-02-21T01:52:26.818Z,71.55
2019-02-21T01:54:56.872Z,72.36
2019-02-21T01:57:27.759Z,73.00
2019-02-21T02:00:02.040Z,72.75
2019-02-21T02:02:32.686Z,72.46
2019-02-21T02:05:02.265Z,73.00
2019-02-21T02:07:32.525Z,73.47
2019-02-21T02:10:03.171Z,73.68
2019-02-21T02:12:32.562Z,73.32
2019-02-21T02:15:06.698Z,73.99
2019-02-21T02:17:37.104Z,74.81
2019-02-21T02:20:08.371Z,75.30
2019-02-21T02:22:37.888Z,74.47
2019-02-21T02:25:16.447Z,74.39
2019-02-21T02:27:45.685Z,74.35
2019-02-21T02:30:15.967Z,73.50
2019-02-21T02:32:46.089Z,73.21
2019-02-21T02:35:17.236Z,73.31
2019-02-21T02:37:49.092Z,74.08
2019-02-21T02:40:18.236Z,74.25
2019-02-21T02:42:48.469Z,74.69
2019-02-21T02:45:22.880Z,74.14
2019-02-21T02:47:56.090Z,74.18
2019-02-21T02:50:25.238Z,74.58
2019-02-21T02:52:55.615Z,73.39
2019-02-21T02:55:26.599Z,74.07
2019-02-21T02:57:59.468Z,74.57
2019-02-21T03:00:30.117Z,73.94
2019-02-21T03:03:02.173Z,73.26
2019-02-21T03:05:31.703Z,73.46
2019-02-21T03:08:02.621Z,72.62
2019-02-21T03:10:32.112Z,73.79
2019-02-21T03:13:05.137Z,74.21
2019-02-21T03:15:35.073Z,74.69
2019-02-21T03:18:07.920Z,74.24
2019-02-21T03:20:37.193Z,75.44
2019-02-21T03:23:06.314Z,75.70
2019-02-21T03:25:35.458Z,74.60
2019-02-21T03:28:06.034Z,74.48
2019-02-21T03:30:36.548Z,72.98
2019-02-21T03:33:05.667Z,72.85
2019-02-21T03:35:37.294Z,74.34
2019-02-21T03:38:06.413Z,74.05
2019-02-21T03:40:35.645Z,74.60
2019-02-21T03:43:04.763Z,75.09
2019-02-21T03:45:36.036Z,75.05
2019-02-21T03:48:06.963Z,74.57
2019-02-21T03:50:36.067Z,74.34
2019-02-21T03:53:05.188Z,73.67
2019-02-21T03:55:35.949Z,73.24
2019-02-21T03:58:06.322Z,72.56
2019-02-21T04:00:37.106Z,70.71
2019-02-21T04:03:06.233Z,70.26
2019-02-21T04:05:36.454Z,71.08
2019-02-21T04:08:06.624Z,70.72
2019-02-21T04:10:38.118Z,72.32
2019-02-21T04:13:08.602Z,71.74
2019-02-21T04:15:37.723Z,72.49
2019-02-21T04:18:10.085Z,72.05
2019-02-21T04:20:39.290Z,72.94
2019-02-21T04:23:09.844Z,71.43
2019-02-21T04:25:39.456Z,71.36
2019-02-21T04:28:08.632Z,71.64
2019-02-21T04:30:39.442Z,72.36
2019-02-21T04:33:11.601Z,73.00
2019-02-21T04:35:40.718Z,73.86
2019-02-21T04:38:09.907Z,74.61
2019-02-21T04:40:39.301Z,74.60
2019-02-21T04:43:08.984Z,74.98
2019-02-21T04:45:42.730Z,76.35
2019-02-21T04:48:14.950Z,75.75
2019-02-21T04:50:54.407Z,75.95
2019-02-21T04:53:23.391Z,76.22
2019-02-21T04:55:52.980Z,75.45
2019-02-21T04:58:34.290Z,73.35
2019-02-21T05:01:03.394Z,71.89
2019-02-21T05:03:32.694Z,71.17
2019-02-21T05:06:04.909Z,72.21
2019-02-21T05:08:35.311Z,71.73
2019-02-21T05:11:06.462Z,70.65
2019-02-21T05:13:54.625Z,70.90
2019-02-21T05:16:24.785Z,72.67
2019-02-21T05:18:54.192Z,74.04
2019-02-21T05:21:23.382Z,74.20
2019-02-21T05:23:52.531Z,76.27
2019-02-21T05:26:30.075Z,76.09
2019-02-21T05:28:59.958Z,75.21
2019-02-21T05:31:53.892Z,74.93
2019-02-21T05:34:46.089Z,75.02
2019-02-21T05:37:31.570Z,75.36
2019-02-21T05:40:38.293Z,74.78
2019-02-21T05:43:17.275Z,76.44
2019-02-21T05:46:03.482Z,76.95
2019-02-21T05:48:45.674Z,75.51
2019-02-21T05:51:42.916Z,74.09
2019-02-21T05:54:28.147Z,73.07
2019-02-21T05:57:07.655Z,71.60
2019-02-21T05:59:54.148Z,71.50
2019-02-21T06:02:57.344Z,73.53
2019-02-21T06:05:49.739Z,73.63
2019-02-21T06:08:35.990Z,74.28
2019-02-21T06:11:35.052Z,75.25
2019-02-21T06:14:27.558Z,75.21
2019-02-21T06:17:14.281Z,75.55
2019-02-21T06:20:09.028Z,75.23
2019-02-21T06:22:55.788Z,76.12
2019-02-21T06:25:32.878Z,74.42
2019-02-21T06:28:09.101Z,74.39
2019-02-21T06:30:45.030Z,75.35
2019-02-21T06:33:18.651Z,75.50
2019-02-21T06:35:48.884Z,75.52
2019-02-21T06:38:21.292Z,75.57
2019-02-21T06:40:53.110Z,74.17
2019-02-21T06:43:23.562Z,74.65
2019-02-21T06:45:53.335Z,75.12
2019-02-21T06:48:23.785Z,75.31
2019-02-21T06:50:55.010Z,75.13
2019-02-21T06:53:24.235Z,75.18
2019-02-21T06:55:53.345Z,75.24
2019-02-21T06:58:26.602Z,76.02
2019-02-21T07:00:53.679Z,76.85
2019-02-21T07:03:30.010Z,76.92
2019-02-21T07:05:58.808Z,76.46
2019-02-21T07:08:27.895Z,75.46
2019-02-21T07:11:05.755Z,76.12
2019-02-21T07:13:28.598Z,76.41
2019-02-21T07:15:58.587Z,75.63
2019-02-21T07:18:29.078Z,75.84
2019-02-21T07:20:58.342Z,76.22
2019-02-21T07:23:35.928Z,74.96
2019-02-21T07:26:12.643Z,75.25
2019-02-21T07:28:43.467Z,75.17
2019-02-21T07:31:12.581Z,75.65
2019-02-21T07:33:42.357Z,75.95
2019-02-21T07:36:11.756Z,75.34
2019-02-21T07:38:43.408Z,75.92
2019-02-21T07:41:12.935Z,75.29
2019-02-21T07:43:47.535Z,75.05
2019-02-21T07:46:22.846Z,75.01
2019-02-21T07:48:48.972Z,74.50
2019-02-21T07:51:23.618Z,75.08
2019-02-21T07:53:52.755Z,73.32
2019-02-21T07:56:22.838Z,73.43
2019-02-21T07:58:53.419Z,72.87
2019-02-21T08:01:24.951Z,71.69
2019-02-21T08:03:55.431Z,71.18
2019-02-21T08:06:27.901Z,70.94
2019-02-21T08:08:57.015Z,70.27
2019-02-21T08:11:26.454Z,70.29
2019-02-21T08:13:58.079Z,70.16
2019-02-21T08:16:35.461Z,70.21
2019-02-21T08:19:04.594Z,68.44
2019-02-21T08:21:34.866Z,69.39
2019-02-21T08:24:05.792Z,70.75
2019-02-21T08:26:43.415Z,69.51
2019-02-21T08:29:15.326Z,68.67
2019-02-21T08:31:44.513Z,68.95
2019-02-21T08:34:20.453Z,68.33
2019-02-21T08:36:55.825Z,67.35
2019-02-21T08:39:25.007Z,65.46
2019-02-21T08:41:55.284Z,66.51
2019-02-21T08:44:28.953Z,67.28
2019-02-21T08:47:01.546Z,65.61
2019-02-21T08:49:37.450Z,66.35
2019-02-21T08:52:14.523Z,66.69
2019-02-21T08:54:43.664Z,67.56
2019-02-21T08:57:15.482Z,67.48
2019-02-21T08:59:45.054Z,69.72
2019-02-21T09:02:18.660Z,68.64
2019-02-21T09:04:51.212Z,68.17
2019-02-21T09:07:26.511Z,68.15
2019-02-21T09:09:55.674Z,68.14
2019-02-21T09:12:24.957Z,67.23
2019-02-21T09:14:56.113Z,66.37
2019-02-21T09:17:28.835Z,64.38
2019-02-21T09:19:58.036Z,64.35
2019-02-21T09:22:27.258Z,62.63
2019-02-21T09:24:56.566Z,60.68
2019-02-21T09:27:29.150Z,60.71
2019-02-21T09:30:01.224Z,59.84
2019-02-21T09:32:30.933Z,60.58
2019-02-21T09:35:15.345Z,60.15
2019-02-21T09:37:47.728Z,60.26
2019-02-21T09:40:19.390Z,59.94
2019-02-21T09:42:48.531Z,60.44
2019-02-21T09:45:21.833Z,59.38
2019-02-21T09:47:51.008Z,59.17
2019-02-21T09:50:20.283Z,58.32
2019-02-21T09:52:50.594Z,56.70
2019-02-21T09:55:19.794Z,56.40
2019-02-21T09:57:49.068Z,58.05
2019-02-21T10:00:22.190Z,56.11
2019-02-21T10:02:55.776Z,58.21
2019-02-21T10:05:27.501Z,59.61
2019-02-21T10:07:57.090Z,58.66
2019-02-21T10:10:29.181Z,57.71
2019-02-21T10:12:59.473Z,56.59
2019-02-21T10:15:31.276Z,56.39
2019-02-21T10:18:01.706Z,56.31
2019-02-21T10:20:35.272Z,57.50
2019-02-21T10:23:10.258Z,58.08
2019-02-21T10:25:42.470Z,56.64
2019-02-21T10:28:13.030Z,57.57
2019-02-21T10:30:44.935Z,56.80
2019-02-21T10:33:18.321Z,56.17
2019-02-21T10:35:47.018Z,55.25
2019-02-21T10:38:16.198Z,55.23
2019-02-21T10:40:45.885Z,55.37
2019-02-21T10:43:15.100Z,55.12
2019-02-21T10:45:48.173Z,52.97
2019-02-21T10:48:19.738Z,53.44
2019-02-21T10:51:12.943Z,53.08
2019-02-21T10:53:45.458Z,54.31
2019-02-21T10:56:14.793Z,52.19
2019-02-21T10:58:51.483Z,54.04
2019-02-21T11:01:20.684Z,52.33
2019-02-21T11:03:51.687Z,51.69
2019-02-21T11:06:27.912Z,51.78
2019-02-21T11:09:01.050Z,50.43
2019-02-21T11:11:32.596Z,51.01
2019-02-21T11:14:01.918Z,50.01
2019-02-21T11:16:32.969Z,50.83
2019-02-21T11:19:06.289Z,50.17
2019-02-21T11:21:37.974Z,51.68
2019-02-21T11:24:08.341Z,49.10
2019-02-21T11:26:43.385Z,50.19
2019-02-21T11:29:12.491Z,48.26
2019-02-21T11:31:44.865Z,49.89
2019-02-21T11:34:16.726Z,49.91
2019-02-21T11:36:48.302Z,48.90
2019-02-21T11:39:19.223Z,50.08
2019-02-21T11:41:49.797Z,49.33
2019-02-21T11:44:23.853Z,47.86
2019-02-21T11:46:54.790Z,49.99
2019-02-21T11:49:24.029Z,46.70
2019-02-21T11:51:55.027Z,47.98
2019-02-21T11:54:27.775Z,45.40
2019-02-21T11:56:59.008Z,45.71
2019-02-21T11:59:29.456Z,48.01
2019-02-21T12:01:58.660Z,47.85
2019-02-21T12:04:33.111Z,48.52
2019-02-21T12:07:03.439Z,47.97
2019-02-21T12:09:35.955Z,49.29
2019-02-21T12:12:06.123Z,48.65
2019-02-21T12:14:35.381Z,47.05
2019-02-21T12:17:04.615Z,47.53
2019-02-21T12:19:34.029Z,49.11
2019-02-21T12:22:09.438Z,49.78
2019-02-21T12:24:40.844Z,48.46
2019-02-21T12:27:16.156Z,51.75
2019-02-21T12:29:49.927Z,50.31
2019-02-21T12:32:20.937Z,48.60
2019-02-21T12:34:53.794Z,49.48
2019-02-21T12:37:23.164Z,48.12
2019-02-21T12:39:56.753Z,48.56
2019-02-21T12:42:26.391Z,49.15
2019-02-21T12:44:58.033Z,49.25
2019-02-21T12:47:30.021Z,48.77
2019-02-21T12:50:00.475Z,47.95
2019-02-21T12:52:31.519Z,48.46
2019-02-21T12:55:09.054Z,47.58
2019-02-21T12:57:38.316Z,48.34
2019-02-21T13:00:14.871Z,47.64
2019-02-21T13:02:46.875Z,47.53
2019-02-21T13:05:23.130Z,45.14
2019-02-21T13:07:52.618Z,47.23
2019-02-21T13:10:22.116Z,45.57
2019-02-21T13:12:53.037Z,46.53
2019-02-21T13:15:22.294Z,48.21
2019-02-21T13:17:55.861Z,46.85
2019-02-21T13:20:26.587Z,47.24
2019-02-21T13:22:56.696Z,47.98
2019-02-21T13:25:26.406Z,46.75
2019-02-21T13:27:55.584Z,47.00
2019-02-21T13:30:25.139Z,46.28
2019-02-21T13:32:54.378Z,46.29
2019-02-21T13:35:23.651Z,47.18
2019-02-21T13:37:54.559Z,47.92
2019-02-21T13:40:23.844Z,46.86
2019-02-21T13:42:56.795Z,47.20
2019-02-21T13:45:25.975Z,49.63
2019-02-21T13:47:57.325Z,48.59
2019-02-21T13:50:41.054Z,48.28
2019-02-21T13:52:57.710Z,48.45
2019-02-21T13:55:26.865Z,48.77
2019-02-21T13:57:56.049Z,50.55
2019-02-21T14:00:25.205Z,49.02
2019-02-21T14:02:54.447Z,49.85
2019-02-21T14:05:25.985Z,49.76
2019-02-21T14:07:55.150Z,50.14
2019-02-21T14:10:27.506Z,50.42
2019-02-21T14:13:11.854Z,49.23
2019-02-21T14:15:42.717Z,49.79
2019-02-21T14:18:14.110Z,48.92
2019-02-21T14:20:45.639Z,48.76
2019-02-21T14:23:17.910Z,48.68
2019-02-21T14:25:47.092Z,48.00
2019-02-21T14:28:19.155Z,49.13
2019-02-21T14:30:48.400Z,49.84
2019-02-21T14:33:17.749Z,48.53
2019-02-21T14:35:46.884Z,46.90
2019-02-21T14:38:27.308Z,48.23
2019-02-21T14:40:49.515Z,47.36
2019-02-21T14:43:22.256Z,47.31
2019-02-21T14:45:51.539Z,46.86
2019-02-21T14:48:20.671Z,48.56
2019-02-21T14:50:50.127Z,46.61
2019-02-21T14:53:28.365Z,46.82
2019-02-21T14:55:57.543Z,47.38
2019-02-21T14:58:27.854Z,46.36
2019-02-21T15:00:57.033Z,47.13
2019-02-21T15:03:29.030Z,47.04
2019-02-21T15:05:58.290Z,47.05
2019-02-21T15:08:28.567Z,47.10
2019-02-21T15:10:57.792Z,46.01
2019-02-21T15:13:26.938Z,46.18
2019-02-21T15:15:56.129Z,44.62
2019-02-21T15:18:25.213Z,45.63
2019-02-21T15:20:59.978Z,45.83
2019-02-21T15:23:30.373Z,44.51
2019-02-21T15:26:14.547Z,45.56
2019-02-21T15:28:35.244Z,47.23
2019-02-21T15:31:07.816Z,45.64
2019-02-21T15:33:35.273Z,47.86
2019-02-21T15:36:05.467Z,47.93
2019-02-21T15:38:34.896Z,48.69
2019-02-21T15:41:06.054Z,49.34
2019-02-21T15:43:37.364Z,50.31
2019-02-21T15:46:15.643Z,50.07
2019-02-21T15:48:44.925Z,50.69
2019-02-21T15:51:15.286Z,49.14
2019-02-21T15:53:49.770Z,49.66
2019-02-21T15:56:18.901Z,49.33
2019-02-21T15:58:49.007Z,49.99
2019-02-21T16:01:19.956Z,50.34
2019-02-21T16:03:50.237Z,49.61
2019-02-21T16:06:20.655Z,50.01
2019-02-21T16:09:16.385Z,49.88
2019-02-21T16:11:45.241Z,50.78
2019-02-21T16:14:14.398Z,48.86
2019-02-21T16:16:43.631Z,50.34
2019-02-21T16:19:12.790Z,49.04
2019-02-21T16:21:43.356Z,48.51
2019-02-21T16:24:12.887Z,48.85
2019-02-21T16:26:42.014Z,50.32
2019-02-21T16:29:12.325Z,51.06
2019-02-21T16:31:41.601Z,50.61
2019-02-21T16:34:14.025Z,50.64
2019-02-21T16:36:43.093Z,50.21
2019-02-21T16:39:12.212Z,50.19
2019-02-21T16:41:44.332Z,50.66
2019-02-21T16:44:16.297Z,50.44
2019-02-21T16:46:47.022Z,49.59
2019-02-21T16:49:22.246Z,49.75
2019-02-21T16:51:52.680Z,48.58
2019-02-21T16:54:25.792Z,47.41
2019-02-21T16:56:56.760Z,47.71
2019-02-21T16:59:25.855Z,47.75
2019-02-21T17:01:55.226Z,47.80
2019-02-21T17:04:36.534Z,47.47
2019-02-21T17:07:13.295Z,49.04
2019-02-21T17:09:36.830Z,47.98
2019-02-21T17:12:07.225Z,47.36
2019-02-21T17:14:36.317Z,46.69
2019-02-21T17:17:08.528Z,47.85
2019-02-21T17:19:38.899Z,47.98
2019-02-21T17:22:08.039Z,47.87
2019-02-21T17:24:38.604Z,47.53
2019-02-21T17:27:11.080Z,47.73
2019-02-21T17:29:40.217Z,48.17
2019-02-21T17:32:09.311Z,47.98
2019-02-21T17:34:40.118Z,48.43
2019-02-21T17:37:24.442Z,48.22
2019-02-21T17:39:52.497Z,48.73
2019-02-21T17:42:22.693Z,50.34
2019-02-21T17:44:54.278Z,49.94
2019-02-21T17:47:26.616Z,52.63
2019-02-21T17:49:58.066Z,54.07
2019-02-21T17:52:28.716Z,53.48
2019-02-21T17:54:57.841Z,53.45
2019-02-21T17:57:26.939Z,52.97
2019-02-21T17:59:56.076Z,53.19
2019-02-21T18:02:25.254Z,51.50
2019-02-21T18:04:54.403Z,50.09
2019-02-21T18:07:36.464Z,50.54
2019-02-21T18:10:05.605Z,51.41
2019-02-21T18:12:34.766Z,52.45
2019-02-21T18:15:06.370Z,51.10
2019-02-21T18:17:35.462Z,53.00
2019-02-21T18:20:06.654Z,51.34
2019-02-21T18:22:35.770Z,50.52
2019-02-21T18:25:05.738Z,50.25
2019-02-21T18:27:34.833Z,53.96
2019-02-21T18:30:05.196Z,54.17
2019-02-21T18:32:41.091Z,54.47
2019-02-21T18:35:20.889Z,53.97
2019-02-21T18:37:54.157Z,52.88
2019-02-21T18:40:30.362Z,54.48
2019-02-21T18:43:00.267Z,53.29
2019-02-21T18:45:33.071Z,53.77
2019-02-21T18:48:02.185Z,53.47
2019-02-21T18:50:38.267Z,53.01
2019-02-21T18:53:02.274Z,51.43
2019-02-21T18:55:31.400Z,51.43
2019-02-21T18:58:00.853Z,51.00
2019-02-21T19:00:33.363Z,52.67
2019-02-21T19:03:02.517Z,53.60
2019-02-21T19:05:35.863Z,52.67
2019-02-21T19:08:07.618Z,51.81
2019-02-21T19:10:36.779Z,52.74
2019-02-21T19:13:07.862Z,54.10
2019-02-21T19:15:37.002Z,54.58
2019-02-21T19:18:06.104Z,55.13
2019-02-21T19:20:35.241Z,54.79
2019-02-21T19:23:04.389Z,55.59
2019-02-21T19:25:35.412Z,55.59
2019-02-21T19:28:04.547Z,55.31
2019-02-21T19:30:41.558Z,55.92
2019-02-21T19:33:10.707Z,56.74
2019-02-21T19:35:39.850Z,55.05
2019-02-21T19:38:10.769Z,55.05
2019-02-21T19:40:41.201Z,53.97
2019-02-21T19:43:16.276Z,54.93
2019-02-21T19:45:45.579Z,55.19
2019-02-21T19:48:14.695Z,54.98
2019-02-21T19:50:45.897Z,55.99
2019-02-21T19:53:19.792Z,55.77
2019-02-21T19:55:48.963Z,56.19
2019-02-21T19:58:20.944Z,56.64
2019-02-21T20:00:51.671Z,56.08
2019-02-21T20:03:20.801Z,55.20
2019-02-21T20:05:50.002Z,55.58
2019-02-21T20:08:21.846Z,56.12
2019-02-21T20:10:51.720Z,54.95
2019-02-21T20:13:22.968Z,55.41
2019-02-21T20:15:58.222Z,55.17
2019-02-21T20:18:27.397Z,54.56
2019-02-21T20:20:56.671Z,53.52
2019-02-21T20:23:26.016Z,53.69
2019-02-21T20:25:55.370Z,52.37
2019-02-21T20:28:24.581Z,52.08
2019-02-21T20:30:54.179Z,52.30
2019-02-21T20:33:25.793Z,52.05
2019-02-21T20:35:55.017Z,52.29
2019-02-21T20:38:31.901Z,53.91
2019-02-21T20:40:55.377Z,53.51
2019-02-21T20:43:24.486Z,52.78
2019-02-21T20:45:56.564Z,53.25
2019-02-21T20:48:30.591Z,53.74
2019-02-21T20:51:02.224Z,54.00
2019-02-21T20:53:31.380Z,54.52
2019-02-21T20:56:00.549Z,56.35
2019-02-21T20:58:30.390Z,56.71
2019-02-21T21:00:59.775Z,57.08
2019-02-21T21:03:32.060Z,56.89
2019-02-21T21:06:03.462Z,57.85
2019-02-21T21:08:43.251Z,58.89
2019-02-21T21:11:08.975Z,58.69
2019-02-21T21:13:39.473Z,57.95
2019-02-21T21:16:08.917Z,58.50
2019-02-21T21:18:38.238Z,59.38
2019-02-21T21:21:08.471Z,58.29
2019-02-21T21:23:38.075Z,58.67
2019-02-21T21:26:08.527Z,59.89
2019-02-21T21:28:41.894Z,59.34
2019-02-21T21:31:15.386Z,59.50
2019-02-21T21:33:49.035Z,60.83
2019-02-21T21:36:21.917Z,59.35
2019-02-21T21:38:54.479Z,59.60
2019-02-21T21:41:23.890Z,59.39
2019-02-21T21:43:53.016Z,58.99
2019-02-21T21:46:22.335Z,58.88
2019-02-21T21:48:55.560Z,57.43
2019-02-21T21:51:24.717Z,57.33
2019-02-21T21:53:53.833Z,57.31
2019-02-21T21:56:23.603Z,57.57
2019-02-21T21:58:55.784Z,57.90
2019-02-21T22:01:24.972Z,58.11
2019-02-21T22:03:56.150Z,57.53
2019-02-21T22:06:28.082Z,57.71
2019-02-21T22:09:04.453Z,58.67
2019-02-21T22:11:29.475Z,57.95
2019-02-21T22:13:58.502Z,59.13
2019-02-21T22:16:28.084Z,56.57
2019-02-21T22:19:00.298Z,58.31
2019-02-21T22:21:29.411Z,58.94
2019-02-21T22:23:58.574Z,59.61
2019-02-21T22:26:27.679Z,58.70
2019-02-21T22:28:56.817Z,59.45
2019-02-21T22:31:25.900Z,58.19
2019-02-21T22:33:55.043Z,57.91
2019-02-21T22:36:25.247Z,59.16
2019-02-21T22:38:54.374Z,59.11
2019-02-21T22:41:25.009Z,58.57
2019-02-21T22:43:54.221Z,58.80
2019-02-21T22:46:23.331Z,58.58
2019-02-21T22:48:53.448Z,58.50
2019-02-21T22:51:26.745Z,60.06
2019-02-21T22:53:56.240Z,58.48
2019-02-21T22:56:25.360Z,58.45
2019-02-21T22:58:54.532Z,59.83
2019-02-21T23:01:29.908Z,59.24
2019-02-21T23:04:19.874Z,59.76
2019-02-21T23:07:33.628Z,59.44
2019-02-21T23:10:05.283Z,58.52
2019-02-21T23:12:36.698Z,60.48
2019-02-21T23:15:08.186Z,61.43
2019-02-21T23:17:37.285Z,61.73
2019-02-21T23:20:09.909Z,61.69
2019-02-21T23:22:39.098Z,63.04
2019-02-21T23:25:09.186Z,63.35
2019-02-21T23:27:39.432Z,63.69
2019-02-21T23:30:15.293Z,60.92
2019-02-21T23:32:44.331Z,61.30
2019-02-21T23:35:18.577Z,61.26
2019-02-21T23:37:47.699Z,61.92
2019-02-21T23:40:16.812Z,62.20
2019-02-21T23:42:46.481Z,63.72
2019-02-21T23:45:17.347Z,62.60
2019-02-21T23:47:49.771Z,62.98
2019-02-21T23:50:17.368Z,62.58
2019-02-21T23:52:46.639Z,62.17
2019-02-21T23:55:15.745Z,60.44
2019-02-21T23:57:44.870Z,61.37
